createdAt,value
2018-05-13T00:00:56.038Z,18.32
2018-05-13T00:03:24.368Z,18.25
2018-05-13T00:05:52.721Z,18.27
2018-05-13T00:08:21.057Z,18.33
2018-05-13T00:10:49.415Z,18.27
2018-05-13T00:13:17.740Z,18.11
2018-05-13T00:15:46.091Z,18.13
2018-05-13T00:18:14.436Z,18.16
2018-05-13T00:20:42.788Z,18.14
2018-05-13T00:23:11.121Z,18.13
2018-05-13T00:25:39.472Z,18.14
2018-05-13T00:28:07.809Z,18.12
2018-05-13T00:30:36.172Z,18.12
2018-05-13T00:33:04.505Z,18.10
2018-05-13T00:35:32.934Z,18.12
2018-05-13T00:38:01.194Z,18.05
2018-05-13T00:40:29.549Z,18.06
2018-05-13T00:42:57.881Z,18.00
2018-05-13T00:45:26.242Z,17.99
2018-05-13T00:47:54.572Z,18.01
2018-05-13T00:50:22.934Z,17.98
2018-05-13T00:52:51.265Z,18.04
2018-05-13T00:55:19.621Z,18.06
2018-05-13T00:57:47.948Z,17.99
2018-05-13T01:00:16.309Z,17.99
2018-05-13T01:02:44.673Z,17.90
2018-05-13T01:05:12.972Z,17.86
2018-05-13T01:07:41.334Z,17.87
2018-05-13T01:10:09.674Z,17.81
2018-05-13T01:12:38.020Z,17.83
2018-05-13T01:15:06.359Z,17.89
2018-05-13T01:17:34.708Z,17.86
2018-05-13T01:20:03.044Z,17.76
2018-05-13T01:22:31.398Z,17.77
2018-05-13T01:24:59.732Z,17.78
2018-05-13T01:27:28.085Z,17.73
2018-05-13T01:29:56.415Z,17.67
2018-05-13T01:32:24.775Z,17.63
2018-05-13T01:34:53.106Z,17.59
2018-05-13T01:37:21.462Z,17.48
2018-05-13T01:39:49.792Z,17.44
2018-05-13T01:42:18.144Z,17.47
2018-05-13T01:44:46.485Z,17.48
2018-05-13T01:47:14.847Z,17.54
2018-05-13T01:49:43.184Z,17.48
2018-05-13T01:52:11.536Z,17.47
2018-05-13T01:54:39.868Z,17.53
2018-05-13T01:57:08.221Z,17.52
2018-05-13T01:59:36.561Z,17.59
2018-05-13T02:02:04.917Z,17.57
2018-05-13T02:04:33.247Z,17.56
2018-05-13T02:07:01.601Z,17.31
2018-05-13T02:09:29.936Z,17.31
2018-05-13T02:11:58.284Z,17.30
2018-05-13T02:14:26.615Z,17.29
2018-05-13T02:16:54.985Z,17.23
2018-05-13T02:19:23.316Z,17.16
2018-05-13T02:21:51.672Z,17.19
2018-05-13T02:24:20.009Z,17.21
2018-05-13T02:26:48.376Z,17.16
2018-05-13T02:29:16.697Z,17.12
2018-05-13T02:31:45.046Z,17.12
2018-05-13T02:34:13.385Z,17.12
2018-05-13T02:36:41.741Z,17.19
2018-05-13T02:39:10.073Z,16.98
2018-05-13T02:41:38.425Z,17.05
2018-05-13T02:44:06.753Z,17.00
2018-05-13T02:46:35.105Z,16.93
2018-05-13T02:49:03.437Z,16.90
2018-05-13T02:51:31.793Z,16.91
2018-05-13T02:54:00.130Z,16.87
2018-05-13T02:56:28.480Z,16.92
2018-05-13T02:58:56.809Z,16.83
2018-05-13T03:01:25.171Z,16.76
2018-05-13T03:03:53.529Z,16.71
2018-05-13T03:06:21.856Z,16.72
2018-05-13T03:08:50.545Z,16.77
2018-05-13T03:11:18.878Z,16.76
2018-05-13T03:13:47.227Z,16.76
2018-05-13T03:16:15.562Z,16.85
2018-05-13T03:18:43.916Z,16.77
2018-05-13T03:21:12.249Z,16.76
2018-05-13T03:23:40.634Z,16.77
2018-05-13T03:26:08.960Z,16.77
2018-05-13T03:28:37.321Z,16.80
2018-05-13T03:31:05.662Z,16.81
2018-05-13T03:33:34.041Z,16.79
2018-05-13T03:36:02.368Z,16.75
2018-05-13T03:38:30.725Z,16.61
2018-05-13T03:40:59.056Z,16.67
2018-05-13T03:43:27.409Z,16.66
2018-05-13T03:45:55.749Z,16.69
2018-05-13T03:48:24.109Z,16.61
2018-05-13T03:50:52.440Z,16.68
2018-05-13T03:53:20.801Z,16.65
2018-05-13T03:55:49.134Z,16.61
2018-05-13T03:58:17.484Z,16.59
2018-05-13T04:00:45.817Z,16.62
2018-05-13T04:03:14.168Z,16.62
2018-05-13T04:05:42.504Z,16.62
2018-05-13T04:11:33.533Z,16.53
2018-05-13T04:14:13.520Z,16.53
2018-05-13T04:16:41.854Z,16.62
2018-05-13T04:19:10.200Z,16.61
2018-05-13T04:21:38.537Z,16.70
2018-05-13T04:24:06.889Z,16.77
2018-05-13T04:26:35.229Z,16.80
2018-05-13T04:29:03.584Z,16.80
2018-05-13T04:31:31.928Z,16.85
2018-05-13T04:34:00.281Z,16.87
2018-05-13T04:36:28.613Z,16.86
2018-05-13T04:38:56.965Z,16.88
2018-05-13T04:41:25.292Z,16.87
2018-05-13T04:43:53.665Z,17.01
2018-05-13T04:46:22.071Z,17.01
2018-05-13T04:48:50.360Z,17.04
2018-05-13T04:51:18.699Z,17.12
2018-05-13T04:53:47.060Z,17.08
2018-05-13T04:56:15.397Z,17.10
2018-05-13T04:58:43.745Z,17.19
2018-05-13T05:01:12.079Z,17.22
2018-05-13T05:03:40.428Z,17.25
2018-05-13T05:06:08.765Z,17.16
2018-05-13T05:08:37.122Z,17.22
2018-05-13T05:11:05.451Z,17.24
2018-05-13T05:13:33.809Z,17.22
2018-05-13T05:16:02.140Z,17.29
2018-05-13T05:18:30.496Z,17.34
2018-05-13T05:20:58.834Z,17.35
2018-05-13T05:23:27.193Z,17.36
2018-05-13T05:25:55.524Z,17.44
2018-05-13T05:28:23.876Z,17.49
2018-05-13T05:30:52.217Z,17.51
2018-05-13T05:33:20.586Z,17.63
2018-05-13T05:35:48.996Z,17.80
2018-05-13T05:38:17.273Z,17.93
2018-05-13T05:40:45.620Z,18.01
2018-05-13T05:43:13.973Z,18.01
2018-05-13T05:45:42.309Z,18.15
2018-05-13T05:48:10.661Z,18.30
2018-05-13T05:50:38.997Z,18.54
2018-05-13T05:53:07.357Z,18.71
2018-05-13T05:55:35.692Z,18.92
2018-05-13T05:58:04.041Z,19.15
2018-05-13T06:00:32.388Z,19.25
2018-05-13T06:03:00.729Z,19.45
2018-05-13T06:05:29.088Z,19.55
2018-05-13T06:07:57.419Z,19.66
2018-05-13T06:10:25.774Z,19.75
2018-05-13T06:12:54.109Z,19.86
2018-05-13T06:15:22.465Z,19.94
2018-05-13T06:17:50.800Z,20.06
2018-05-13T06:20:19.153Z,20.17
2018-05-13T06:22:47.489Z,20.27
2018-05-13T06:25:15.925Z,20.36
2018-05-13T06:27:44.166Z,20.57
2018-05-13T06:30:12.523Z,20.57
2018-05-13T06:32:40.857Z,20.80
2018-05-13T06:35:09.214Z,20.91
2018-05-13T06:37:37.555Z,21.20
2018-05-13T06:40:05.905Z,21.01
2018-05-13T06:42:34.243Z,20.88
2018-05-13T06:45:02.593Z,20.81
2018-05-13T06:47:30.924Z,20.56
2018-05-13T06:49:59.277Z,20.46
2018-05-13T06:52:27.617Z,20.59
2018-05-13T06:54:55.983Z,20.56
2018-05-13T06:57:24.393Z,20.57
2018-05-13T06:59:53.281Z,20.71
2018-05-13T07:02:21.621Z,20.70
2018-05-13T07:04:49.981Z,20.81
2018-05-13T07:07:18.317Z,20.84
2018-05-13T07:09:46.676Z,20.85
2018-05-13T07:12:15.009Z,20.79
2018-05-13T07:14:43.365Z,20.81
2018-05-13T07:17:11.702Z,20.73
2018-05-13T07:19:40.088Z,20.72
2018-05-13T07:22:08.428Z,20.56
2018-05-13T07:24:36.786Z,20.60
2018-05-13T07:27:05.124Z,20.74
2018-05-13T07:29:33.484Z,20.89
2018-05-13T07:32:01.816Z,21.05
2018-05-13T07:34:30.191Z,21.29
2018-05-13T07:36:58.528Z,21.45
2018-05-13T07:39:27.624Z,21.62
2018-05-13T07:41:55.958Z,21.81
2018-05-13T07:44:24.324Z,22.14
2018-05-13T07:46:52.666Z,22.29
2018-05-13T07:49:21.031Z,22.34
2018-05-13T07:51:49.368Z,22.33
2018-05-13T07:54:17.724Z,22.40
2018-05-13T07:56:46.060Z,22.29
2018-05-13T07:59:14.410Z,22.08
2018-05-13T08:01:42.760Z,22.16
2018-05-13T08:04:11.101Z,22.31
2018-05-13T08:06:39.672Z,22.46
2018-05-13T08:09:08.151Z,22.60
2018-05-13T08:11:36.831Z,22.77
2018-05-13T08:14:05.280Z,22.73
2018-05-13T08:16:33.990Z,22.62
2018-05-13T08:19:03.392Z,22.90
2018-05-13T08:21:31.748Z,23.08
2018-05-13T08:24:00.076Z,23.22
2018-05-13T08:26:28.441Z,23.10
2018-05-13T08:28:56.773Z,23.16
2018-05-13T08:31:25.132Z,23.26
2018-05-13T08:33:53.472Z,23.55
2018-05-13T08:36:21.841Z,23.82
2018-05-13T08:38:50.513Z,23.94
2018-05-13T08:41:18.869Z,24.21
2018-05-13T08:43:47.208Z,24.13
2018-05-13T08:46:15.578Z,23.87
2018-05-13T08:48:43.918Z,23.78
2018-05-13T08:51:12.275Z,23.94
2018-05-13T08:53:40.608Z,24.27
2018-05-13T08:56:08.993Z,24.21
2018-05-13T08:58:37.369Z,24.27
2018-05-13T09:01:05.731Z,24.24
2018-05-13T09:03:34.069Z,24.20
2018-05-13T09:06:02.433Z,24.25
2018-05-13T09:08:30.829Z,24.24
2018-05-13T09:10:59.133Z,24.33
2018-05-13T09:13:27.590Z,24.35
2018-05-13T09:15:55.949Z,24.48
2018-05-13T09:18:24.972Z,24.56
2018-05-13T09:20:53.344Z,24.58
2018-05-13T09:23:21.672Z,24.78
2018-05-13T09:25:52.957Z,24.81
2018-05-13T09:28:21.307Z,24.88
2018-05-13T09:30:49.670Z,24.69
2018-05-13T09:33:18.017Z,24.78
2018-05-13T09:35:46.385Z,24.86
2018-05-13T09:38:14.726Z,24.89
2018-05-13T09:40:43.085Z,24.81
2018-05-13T09:43:11.425Z,24.85
2018-05-13T09:45:39.954Z,24.92
2018-05-13T09:48:08.285Z,25.03
2018-05-13T09:50:36.645Z,25.29
2018-05-13T09:53:04.989Z,25.49
2018-05-13T09:55:33.371Z,25.41
2018-05-13T09:58:01.722Z,25.43
2018-05-13T10:00:30.091Z,25.48
2018-05-13T10:02:58.439Z,25.49
2018-05-13T10:05:26.783Z,25.45
2018-05-13T10:07:55.142Z,25.56
2018-05-13T10:10:23.485Z,25.70
2018-05-13T10:12:51.845Z,25.78
2018-05-13T10:15:20.188Z,25.88
2018-05-13T10:17:48.550Z,25.93
2018-05-13T10:20:16.885Z,25.82
2018-05-13T10:22:45.244Z,25.86
2018-05-13T10:25:13.599Z,25.87
2018-05-13T10:27:41.950Z,26.00
2018-05-13T10:30:10.285Z,26.21
2018-05-13T10:32:38.641Z,26.31
2018-05-13T10:35:06.981Z,26.38
2018-05-13T10:37:36.702Z,26.31
2018-05-13T10:40:05.331Z,26.29
2018-05-13T10:42:33.825Z,26.26
2018-05-13T10:45:02.132Z,26.30
2018-05-13T10:47:30.493Z,26.32
2018-05-13T10:49:58.828Z,26.44
2018-05-13T10:52:27.188Z,26.33
2018-05-13T10:54:55.522Z,26.43
2018-05-13T10:57:23.890Z,26.52
2018-05-13T10:59:52.226Z,26.49
2018-05-13T11:02:20.589Z,26.60
2018-05-13T11:04:49.028Z,26.70
2018-05-13T11:07:17.301Z,26.85
2018-05-13T11:09:45.727Z,27.02
2018-05-13T11:12:14.069Z,27.14
2018-05-13T11:14:42.406Z,27.14
2018-05-13T11:17:10.994Z,27.19
2018-05-13T11:19:39.338Z,27.26
2018-05-13T11:22:07.693Z,27.36
2018-05-13T11:24:36.033Z,27.37
2018-05-13T11:27:04.397Z,27.34
2018-05-13T11:29:32.734Z,27.42
2018-05-13T11:32:01.213Z,27.51
2018-05-13T11:34:29.553Z,27.63
2018-05-13T11:36:58.625Z,27.47
2018-05-13T11:39:26.973Z,27.48
2018-05-13T11:41:55.970Z,27.50
2018-05-13T11:44:24.310Z,27.64
2018-05-13T11:46:52.665Z,27.65
2018-05-13T11:49:21.096Z,27.62
2018-05-13T11:51:49.453Z,27.62
2018-05-13T11:54:17.802Z,27.71
2018-05-13T11:56:46.163Z,27.86
2018-05-13T11:59:14.500Z,27.90
2018-05-13T12:01:42.853Z,28.08
2018-05-13T12:04:11.198Z,28.13
2018-05-13T12:06:39.566Z,28.21
2018-05-13T12:09:07.900Z,28.10
2018-05-13T12:11:36.245Z,28.13
2018-05-13T12:14:04.605Z,28.10
2018-05-13T12:16:33.052Z,28.06
2018-05-13T12:19:01.474Z,28.08
2018-05-13T12:21:29.749Z,27.99
2018-05-13T12:23:58.117Z,28.07
2018-05-13T12:26:26.464Z,28.06
2018-05-13T12:28:54.857Z,28.06
2018-05-13T12:31:23.186Z,28.13
2018-05-13T12:33:51.553Z,28.12
2018-05-13T12:36:19.893Z,28.24
2018-05-13T12:38:48.253Z,28.23
2018-05-13T12:41:16.584Z,28.17
2018-05-13T12:43:44.948Z,28.08
2018-05-13T12:46:13.289Z,28.07
2018-05-13T12:48:41.648Z,28.03
2018-05-13T12:51:09.994Z,28.03
2018-05-13T12:53:38.352Z,28.09
2018-05-13T12:56:07.849Z,28.24
2018-05-13T12:58:36.207Z,28.28
2018-05-13T13:01:04.554Z,28.35
2018-05-13T13:03:32.902Z,28.58
2018-05-13T13:06:01.261Z,28.51
2018-05-13T13:08:29.654Z,28.49
2018-05-13T13:10:57.952Z,28.36
2018-05-13T13:13:26.312Z,28.42
2018-05-13T13:15:54.648Z,28.45
2018-05-13T13:18:23.949Z,28.45
2018-05-13T13:20:52.293Z,28.46
2018-05-13T13:23:20.652Z,28.55
2018-05-13T13:25:49.010Z,28.64
2018-05-13T13:28:17.360Z,28.71
2018-05-13T13:30:45.780Z,28.66
2018-05-13T13:33:14.071Z,28.53
2018-05-13T13:35:42.409Z,28.41
2018-05-13T13:38:10.773Z,28.32
2018-05-13T13:40:39.118Z,28.11
2018-05-13T13:43:07.487Z,28.07
2018-05-13T13:45:35.849Z,28.30
2018-05-13T13:48:04.201Z,28.46
2018-05-13T13:50:32.540Z,28.49
2018-05-13T13:53:00.916Z,28.40
2018-05-13T13:55:29.969Z,28.36
2018-05-13T13:57:58.379Z,28.42
2018-05-13T14:00:26.748Z,28.37
2018-05-13T14:02:55.110Z,28.21
2018-05-13T14:05:23.485Z,28.20
2018-05-13T14:07:51.846Z,28.34
2018-05-13T14:10:20.179Z,28.21
2018-05-13T14:12:48.505Z,27.99
2018-05-13T14:15:16.928Z,27.93
2018-05-13T14:17:45.276Z,27.83
2018-05-13T14:20:13.948Z,27.80
2018-05-13T14:22:43.049Z,27.91
2018-05-13T14:25:12.601Z,27.94
2018-05-13T14:27:41.488Z,28.04
2018-05-13T14:30:10.836Z,27.90
2018-05-13T14:32:39.540Z,28.01
2018-05-13T14:35:08.146Z,28.03
2018-05-13T14:37:36.827Z,27.99
2018-05-13T14:40:05.389Z,28.05
2018-05-13T14:42:34.620Z,27.98
2018-05-13T14:45:03.220Z,28.06
2018-05-13T14:47:31.772Z,27.96
2018-05-13T14:50:00.347Z,28.00
2018-05-13T14:52:28.841Z,27.96
2018-05-13T14:54:57.359Z,28.03
2018-05-13T14:57:25.848Z,28.10
2018-05-13T14:59:54.532Z,28.05
2018-05-13T15:02:23.019Z,27.96
2018-05-13T15:04:52.469Z,27.96
2018-05-13T15:07:29.903Z,27.98
2018-05-13T15:09:58.633Z,27.93
2018-05-13T15:12:27.308Z,27.91
2018-05-13T15:14:55.736Z,27.98
2018-05-13T15:17:24.270Z,28.11
2018-05-13T15:19:52.975Z,28.25
2018-05-13T15:22:36.202Z,28.09
2018-05-13T15:25:04.765Z,28.06
2018-05-13T15:27:33.291Z,27.99
2018-05-13T15:30:01.929Z,27.92
2018-05-13T15:32:30.421Z,27.91
2018-05-13T15:34:59.193Z,27.87
2018-05-13T15:37:27.709Z,27.80
2018-05-13T15:39:56.178Z,27.77
2018-05-13T15:42:24.700Z,27.75
2018-05-13T15:44:53.738Z,27.80
2018-05-13T15:47:22.137Z,27.77
2018-05-13T15:49:50.487Z,27.82
2018-05-13T15:52:18.812Z,27.78
2018-05-13T15:54:47.839Z,27.74
2018-05-13T15:57:16.169Z,27.73
2018-05-13T15:59:44.521Z,27.72
2018-05-13T16:02:12.853Z,27.76
2018-05-13T16:04:41.200Z,27.84
2018-05-13T16:07:09.533Z,27.83
2018-05-13T16:09:37.889Z,27.80
2018-05-13T16:12:06.228Z,27.77
2018-05-13T16:14:35.561Z,27.65
2018-05-13T16:17:03.891Z,27.63
2018-05-13T16:19:32.232Z,27.60
2018-05-13T16:22:00.556Z,27.51
2018-05-13T16:24:28.908Z,27.19
2018-05-13T16:26:57.257Z,26.71
2018-05-13T16:29:25.671Z,26.10
2018-05-13T16:31:53.988Z,25.83
2018-05-13T16:34:23.096Z,25.38
2018-05-13T16:36:51.432Z,25.12
2018-05-13T16:39:19.793Z,24.87
2018-05-13T16:41:48.121Z,24.68
2018-05-13T16:44:16.460Z,24.64
2018-05-13T16:46:44.821Z,24.53
2018-05-13T16:49:13.161Z,24.45
2018-05-13T16:51:41.521Z,24.37
2018-05-13T16:54:10.616Z,24.33
2018-05-13T16:56:38.972Z,24.21
2018-05-13T16:59:07.315Z,24.12
2018-05-13T17:01:35.724Z,24.03
2018-05-13T17:04:04.015Z,23.95
2018-05-13T17:06:32.372Z,23.80
2018-05-13T17:09:00.717Z,23.78
2018-05-13T17:11:29.076Z,23.71
2018-05-13T17:13:57.421Z,23.61
2018-05-13T17:16:25.781Z,23.69
2018-05-13T17:18:54.121Z,23.70
2018-05-13T17:21:22.478Z,23.67
2018-05-13T17:23:50.816Z,23.66
2018-05-13T17:26:19.183Z,23.58
2018-05-13T17:28:47.518Z,23.50
2018-05-13T17:31:15.907Z,23.54
2018-05-13T17:33:44.227Z,23.34
2018-05-13T17:36:12.585Z,23.23
2018-05-13T17:38:40.929Z,23.14
2018-05-13T17:41:09.321Z,23.18
2018-05-13T17:43:37.632Z,23.15
2018-05-13T17:46:05.993Z,23.16
2018-05-13T17:48:34.322Z,22.93
2018-05-13T17:51:02.673Z,22.86
2018-05-13T17:53:31.030Z,22.80
2018-05-13T17:55:59.355Z,22.75
2018-05-13T17:58:27.672Z,22.71
2018-05-13T18:00:56.061Z,22.68
2018-05-13T18:03:24.368Z,22.74
2018-05-13T18:05:52.718Z,22.75
2018-05-13T18:08:21.056Z,22.66
2018-05-13T18:10:49.397Z,22.58
2018-05-13T18:13:17.781Z,22.62
2018-05-13T18:15:46.124Z,22.54
2018-05-13T18:18:14.449Z,22.52
2018-05-13T18:20:42.806Z,22.55
2018-05-13T18:23:11.128Z,22.58
2018-05-13T18:25:39.481Z,22.58
2018-05-13T18:28:07.898Z,22.54
2018-05-13T18:30:36.189Z,22.50
2018-05-13T18:33:04.521Z,22.47
2018-05-13T18:35:32.864Z,22.45
2018-05-13T18:38:01.193Z,22.45
2018-05-13T18:40:30.336Z,22.33
2018-05-13T18:42:58.665Z,22.40
2018-05-13T18:45:27.049Z,22.38
2018-05-13T18:47:55.393Z,22.32
2018-05-13T18:50:23.880Z,22.34
2018-05-13T18:52:52.102Z,22.28
2018-05-13T18:55:20.436Z,22.25
2018-05-13T18:57:48.800Z,22.25
2018-05-13T19:00:17.438Z,22.24
2018-05-13T19:02:45.797Z,22.25
2018-05-13T19:05:14.136Z,22.23
2018-05-13T19:07:42.493Z,22.18
2018-05-13T19:10:10.833Z,22.31
2018-05-13T19:12:39.201Z,22.31
2018-05-13T19:15:07.528Z,22.35
2018-05-13T19:17:35.897Z,22.36
2018-05-13T19:20:04.966Z,22.33
2018-05-13T19:22:33.354Z,22.30
2018-05-13T19:25:01.677Z,22.27
2018-05-13T19:27:30.037Z,22.24
2018-05-13T19:29:58.379Z,22.11
2018-05-13T19:32:26.741Z,22.01
2018-05-13T19:34:55.083Z,21.82
2018-05-13T19:37:23.437Z,21.60
2018-05-13T19:39:52.698Z,21.51
2018-05-13T19:42:21.059Z,21.31
2018-05-13T19:44:49.392Z,21.34
2018-05-13T19:47:17.753Z,21.18
2018-05-13T19:49:46.107Z,21.17
2018-05-13T19:52:14.449Z,21.21
2018-05-13T19:54:42.788Z,21.12
2018-05-13T19:57:11.143Z,21.15
2018-05-13T19:59:40.225Z,21.13
2018-05-13T20:02:08.585Z,21.11
2018-05-13T20:04:36.921Z,21.01
2018-05-13T20:07:05.286Z,20.94
2018-05-13T20:09:33.665Z,20.90
2018-05-13T20:12:01.979Z,20.93
2018-05-13T20:14:30.321Z,20.91
2018-05-13T20:16:58.681Z,20.92
2018-05-13T20:19:27.017Z,20.89
2018-05-13T20:21:55.374Z,20.93
2018-05-13T20:24:23.711Z,20.95
2018-05-13T20:26:52.105Z,20.97
2018-05-13T20:29:20.444Z,20.88
2018-05-13T20:31:48.801Z,20.78
2018-05-13T20:34:17.145Z,20.79
2018-05-13T20:36:45.504Z,20.80
2018-05-13T20:39:14.568Z,20.86
2018-05-13T20:41:42.924Z,20.81
2018-05-13T20:44:11.341Z,20.88
2018-05-13T20:46:39.625Z,20.86
2018-05-13T20:49:07.961Z,20.79
2018-05-13T20:51:36.300Z,20.78
2018-05-13T20:54:04.670Z,20.67
2018-05-13T20:56:33.017Z,20.51
2018-05-13T20:59:02.293Z,20.17
2018-05-13T21:01:30.581Z,20.02
2018-05-13T21:03:58.941Z,19.96
2018-05-13T21:06:27.276Z,20.01
2018-05-13T21:08:55.642Z,20.05
2018-05-13T21:11:23.989Z,20.03
2018-05-13T21:13:52.344Z,20.05
2018-05-13T21:16:20.682Z,20.00
2018-05-13T21:18:49.838Z,20.03
2018-05-13T21:21:18.173Z,20.02
2018-05-13T21:23:46.537Z,19.92
2018-05-13T21:26:14.880Z,19.66
2018-05-13T21:28:43.249Z,19.60
2018-05-13T21:31:11.591Z,19.69
2018-05-13T21:33:39.957Z,19.78
2018-05-13T21:36:08.297Z,19.73
2018-05-13T21:38:36.672Z,19.60
2018-05-13T21:41:05.009Z,19.48
2018-05-13T21:43:33.370Z,19.45
2018-05-13T21:46:01.697Z,19.44
2018-05-13T21:48:30.055Z,19.47
2018-05-13T21:50:58.384Z,19.42
2018-05-13T21:53:26.737Z,19.36
2018-05-13T21:55:55.073Z,19.29
2018-05-13T21:58:23.424Z,19.29
2018-05-13T22:00:51.757Z,19.24
2018-05-13T22:03:20.116Z,19.05
2018-05-13T22:05:48.449Z,18.89
2018-05-13T22:08:16.802Z,18.85
2018-05-13T22:10:45.141Z,18.99
2018-05-13T22:13:13.497Z,19.05
2018-05-13T22:15:41.825Z,18.97
2018-05-13T22:18:10.181Z,18.97
2018-05-13T22:20:38.508Z,19.09
2018-05-13T22:23:06.864Z,19.18
2018-05-13T22:25:35.243Z,18.97
2018-05-13T22:28:03.561Z,18.91
2018-05-13T22:30:31.884Z,18.95
2018-05-13T22:33:00.245Z,18.97
2018-05-13T22:35:28.577Z,18.74
2018-05-13T22:37:56.933Z,18.67
2018-05-13T22:40:25.268Z,18.81
2018-05-13T22:42:53.616Z,18.75
2018-05-13T22:45:21.953Z,18.63
2018-05-13T22:47:50.306Z,18.55
2018-05-13T22:50:18.637Z,18.58
2018-05-13T22:52:46.981Z,18.49
2018-05-13T22:55:15.332Z,18.46
2018-05-13T22:57:43.673Z,18.55
2018-05-13T23:00:12.030Z,18.58
2018-05-13T23:02:40.365Z,18.70
2018-05-13T23:05:08.716Z,18.57
2018-05-13T23:07:37.054Z,18.47
2018-05-13T23:10:05.409Z,18.38
2018-05-13T23:12:33.746Z,18.44
2018-05-13T23:15:02.096Z,18.39
2018-05-13T23:17:30.432Z,18.34
2018-05-13T23:19:58.780Z,18.26
2018-05-13T23:22:34.813Z,18.29
2018-05-13T23:25:03.161Z,18.28
2018-05-13T23:27:31.488Z,18.20
2018-05-13T23:29:59.841Z,18.21
2018-05-13T23:32:28.180Z,18.10
2018-05-13T23:34:56.537Z,18.14
2018-05-13T23:37:24.869Z,18.02
2018-05-13T23:39:53.216Z,17.96
2018-05-13T23:42:21.553Z,17.91
2018-05-13T23:44:49.904Z,17.81
2018-05-13T23:47:18.233Z,17.91
2018-05-13T23:49:46.592Z,17.87
2018-05-13T23:52:14.926Z,17.80
2018-05-13T23:54:43.277Z,17.79
2018-05-13T23:57:11.624Z,17.76
2018-05-13T23:59:39.982Z,17.70
